Time;durP1;ratioP1;P1;durP2;ratioP2;P2;SDS_P1;SDS_P2;PMS_P1;PMS_P2;Temp;Humidity;BMP_temperature;BMP_pressure;BME280_temperature;BME280_humidity;BME280_pressure;Samples;Min_cycle;Max_cycle;Signal;HPM_P1;HPM_P2
2021/07/26 00:02:00;;;;;;;9.18;4.60;;;;;;;15.37;100.00;93449.50;5060703;28;20107;-56
2021/07/26 00:04:28;;;;;;;12.75;4.80;;;;;;;15.36;100.00;93454.09;5055087;28;20104;-51
2021/07/26 00:06:58;;;;;;;7.18;4.88;;;;;;;15.38;100.00;93451.06;5055501;28;20029;-59
2021/07/26 00:09:31;;;;;;;8.57;5.15;;;;;;;15.37;100.00;93466.47;5037058;28;20029;-60
2021/07/26 00:11:56;;;;;;;13.48;4.65;;;;;;;15.38;100.00;93462.66;5055208;28;20378;-61
2021/07/26 00:14:25;;;;;;;19.52;5.70;;;;;;;15.38;100.00;93473.44;5054969;28;20028;-61
2021/07/26 00:16:50;;;;;;;20.42;4.95;;;;;;;15.40;100.00;93464.22;5054858;28;20108;-60
2021/07/26 00:19:17;;;;;;;14.60;6.03;;;;;;;15.40;100.00;93467.69;5054941;28;20100;-60
2021/07/26 00:21:46;;;;;;;10.07;5.60;;;;;;;15.42;100.00;93476.28;5054644;28;20471;-60
2021/07/26 00:24:31;;;;;;;9.52;5.22;;;;;;;15.42;100.00;93478.97;5054745;28;20083;-61
2021/07/26 00:26:56;;;;;;;12.77;5.45;;;;;;;15.41;100.00;93471.19;5036792;28;20029;-61
2021/07/26 00:29:22;;;;;;;11.98;5.65;;;;;;;15.40;100.00;93477.72;5054652;28;20559;-60
2021/07/26 00:31:47;;;;;;;17.08;6.05;;;;;;;15.40;100.00;93489.28;5054629;28;20017;-59
2021/07/26 00:34:23;;;;;;;10.05;5.65;;;;;;;15.40;100.00;93493.88;5054438;28;20071;-61
2021/07/26 00:36:52;;;;;;;12.77;5.75;;;;;;;15.44;100.00;93495.59;5054556;28;20087;-60
2021/07/26 00:39:20;;;;;;;22.70;5.70;;;;;;;15.45;100.00;93497.19;5054669;28;20040;-61
2021/07/26 00:41:50;;;;;;;15.05;5.20;;;;;;;15.45;100.00;93497.19;5054535;28;20418;-60
2021/07/26 00:44:17;;;;;;;10.50;5.47;;;;;;;15.42;100.00;93500.56;5036467;28;20059;-60
2021/07/26 00:46:51;;;;;;;9.80;5.60;;;;;;;15.40;100.00;93505.47;5054189;28;20083;-61
2021/07/26 00:49:21;;;;;;;8.98;5.93;;;;;;;15.40;100.00;93515.47;5036487;28;20020;-60
2021/07/26 00:51:52;;;;;;;8.57;5.05;;;;;;;15.40;100.00;93518.16;5054362;28;20082;-61
2021/07/26 00:54:41;;;;;;;9.20;5.30;;;;;;;15.41;100.00;93515.13;5053751;28;20068;-59
2021/07/26 00:57:08;;;;;;;6.70;5.07;;;;;;;15.43;100.00;93523.72;5053707;28;20044;-59
2021/07/26 00:59:37;;;;;;;11.77;6.00;;;;;;;15.41;100.00;93527.84;5061991;28;20028;-60
2021/07/26 01:02:08;;;;;;;13.15;5.97;;;;;;;15.43;100.00;93528.31;5059195;28;20024;-59
2021/07/26 01:04:34;;;;;;;10.93;5.05;;;;;;;15.40;100.00;93539.75;5036118;28;20357;-59
2021/07/26 01:06:59;;;;;;;8.40;4.63;;;;;;;15.40;100.00;93537.84;5053975;28;20032;-57
2021/07/26 01:09:25;;;;;;;13.15;4.75;;;;;;;15.41;100.00;93542.13;5054035;28;20025;-53
2021/07/26 01:11:53;;;;;;;6.45;4.75;;;;;;;15.39;100.00;93538.97;5053666;28;20027;-57
2021/07/26 01:14:21;;;;;;;5.75;4.30;;;;;;;15.36;100.00;93539.63;5036073;28;20063;-54
2021/07/26 01:16:48;;;;;;;13.65;6.07;;;;;;;15.28;100.00;93537.81;5053672;28;20029;-52
2021/07/26 01:19:19;;;;;;;7.25;4.30;;;;;;;15.27;100.00;93539.72;5036090;28;20047;-51
2021/07/26 01:21:48;;;;;;;9.32;4.65;;;;;;;15.27;100.00;93536.22;5053640;28;20494;-52
2021/07/26 01:24:14;;;;;;;5.38;4.03;;;;;;;15.25;100.00;93533.09;5053444;28;20060;-56
2021/07/26 01:26:48;;;;;;;7.53;4.00;;;;;;;15.22;100.00;93533.75;5053581;28;20114;-59
2021/07/26 01:29:22;;;;;;;7.60;4.07;;;;;;;15.19;100.00;93547.88;5053579;28;20468;-59
2021/07/26 01:31:53;;;;;;;9.32;3.72;;;;;;;15.16;100.00;93557.44;5053505;28;20090;-56
2021/07/26 01:34:19;;;;;;;5.10;3.85;;;;;;;15.13;100.00;93560.00;5035640;28;20036;-58
2021/07/26 01:36:46;;;;;;;6.20;4.18;;;;;;;15.13;100.00;93551.91;5053549;28;20463;-60
2021/07/26 01:39:17;;;;;;;8.25;3.67;;;;;;;15.08;100.00;93559.06;5053450;28;20051;-59
2021/07/26 01:41:45;;;;;;;7.38;3.70;;;;;;;15.03;100.00;93548.50;5053355;28;20066;-60
2021/07/26 01:44:20;;;;;;;7.88;3.28;;;;;;;14.97;100.00;93544.41;5035230;28;20056;-59
2021/07/26 01:47:05;;;;;;;4.97;3.47;;;;;;;14.96;100.00;93556.31;5053232;28;20068;-59
2021/07/26 01:49:37;;;;;;;6.00;3.70;;;;;;;14.94;100.00;93566.63;5053294;28;20082;-60
2021/07/26 01:52:17;;;;;;;5.07;3.58;;;;;;;14.91;100.00;93572.69;5035377;28;20120;-59
2021/07/26 01:54:43;;;;;;;4.78;3.30;;;;;;;14.89;100.00;93577.63;5025876;28;20364;-58
2021/07/26 01:57:12;;;;;;;8.82;3.70;;;;;;;14.87;100.00;93587.97;5072730;28;20055;-58
2021/07/26 01:59:37;;;;;;;4.95;3.20;;;;;;;14.85;100.00;93598.25;5072787;28;20028;-59
2021/07/26 02:02:03;;;;;;;6.93;3.53;;;;;;;14.83;100.00;93599.72;5058103;28;20036;-61
2021/07/26 02:04:33;;;;;;;6.00;3.38;;;;;;;14.80;100.00;93603.84;5052636;28;20029;-60
2021/07/26 02:07:02;;;;;;;5.90;3.28;;;;;;;14.77;100.00;93604.50;5034993;28;20039;-59
2021/07/26 02:09:45;;;;;;;6.57;3.72;;;;;;;14.74;100.00;93607.84;5052824;28;20028;-60
2021/07/26 02:12:10;;;;;;;5.93;4.07;;;;;;;14.72;100.00;93613.56;5034733;28;20017;-59
2021/07/26 02:14:47;;;;;;;6.13;3.40;;;;;;;14.70;100.00;93606.94;5035147;28;20032;-58
2021/07/26 02:17:12;;;;;;;7.32;3.00;;;;;;;14.69;100.00;93616.13;5035549;28;20448;-60
2021/07/26 02:19:40;;;;;;;6.15;3.50;;;;;;;14.69;100.00;93616.13;5052705;28;20063;-59
2021/07/26 02:22:08;;;;;;;5.15;3.30;;;;;;;14.68;100.00;93623.44;5052560;28;20060;-59
2021/07/26 02:24:33;;;;;;;5.18;3.50;;;;;;;14.67;100.00;93608.38;5052334;28;20087;-59
2021/07/26 02:26:59;;;;;;;6.25;3.33;;;;;;;14.68;100.00;93590.31;5052392;28;20033;-55
2021/07/26 02:29:37;;;;;;;6.80;3.33;;;;;;;14.71;100.00;93581.56;5052494;28;20063;-54
2021/07/26 02:32:09;;;;;;;4.88;3.28;;;;;;;14.71;100.00;93574.25;5034663;28;20029;-56
2021/07/26 02:34:34;;;;;;;5.90;3.58;;;;;;;14.71;100.00;93560.00;5052799;28;20028;-52
2021/07/26 02:37:00;;;;;;;8.02;3.88;;;;;;;14.71;100.00;93570.78;5052126;28;20024;-58
2021/07/26 02:39:27;;;;;;;4.93;3.40;;;;;;;14.71;100.00;93589.63;5034373;28;20029;-55
2021/07/26 02:41:52;;;;;;;5.05;3.30;;;;;;;14.72;100.00;93602.00;5052330;28;20025;-52
2021/07/26 02:44:20;;;;;;;8.45;3.05;;;;;;;14.71;100.00;93603.91;5034240;28;20024;-54
2021/07/26 02:46:46;;;;;;;5.03;3.38;;;;;;;14.70;100.00;93604.22;5034797;28;20029;-53
2021/07/26 02:49:11;;;;;;;5.82;3.40;;;;;;;14.66;100.00;93598.72;5052204;28;20484;-58
2021/07/26 02:51:39;;;;;;;5.75;3.50;;;;;;;14.65;100.00;93602.53;5052067;28;20025;-60
2021/07/26 02:54:07;;;;;;;5.57;4.03;;;;;;;14.64;100.00;93602.81;5052029;28;20021;-58
2021/07/26 02:56:40;;;;;;;4.03;3.47;;;;;;;14.62;100.00;93599.69;5051831;28;20017;-60
2021/07/26 02:59:13;;;;;;;6.40;3.50;;;;;;;14.59;100.00;93608.41;5038394;28;20028;-58
2021/07/26 03:01:41;;;;;;;;;;;;;;;14.57;100.00;93621.44;5060936;28;20472;-59
2021/07/26 03:04:07;;;;;;;3.97;3.58;;;;;;;14.52;100.00;93622.38;5051860;28;19909;-59
2021/07/26 03:06:35;;;;;;;6.43;3.60;;;;;;;14.49;100.00;93626.53;5052206;28;20479;-60
2021/07/26 03:09:03;;;;;;;4.35;3.40;;;;;;;14.47;100.00;93620.69;5052053;28;20104;-60
2021/07/26 03:11:43;;;;;;;4.70;3.65;;;;;;;14.45;100.00;93620.22;5052034;28;20079;-58
2021/07/26 03:14:14;;;;;;;6.75;3.25;;;;;;;14.43;100.00;93611.63;5051985;28;20025;-58
2021/07/26 03:16:42;;;;;;;7.28;3.40;;;;;;;14.46;100.00;93613.72;5035148;28;20059;-60
2021/07/26 03:19:17;;;;;;;7.20;3.58;;;;;;;14.49;100.00;93604.19;5056042;28;20472;-58
2021/07/26 03:21:43;;;;;;;7.95;4.10;;;;;;;14.49;100.00;93601.50;5056029;28;20025;-58
2021/07/26 03:24:14;;;;;;;8.07;3.97;;;;;;;14.47;100.00;93598.34;5055938;28;20028;-58
2021/07/26 03:26:42;;;;;;;5.40;3.35;;;;;;;14.44;100.00;93597.09;5055822;28;20071;-59
2021/07/26 03:29:10;;;;;;;6.00;3.42;;;;;;;14.41;100.00;93599.59;5055670;28;20025;-58
2021/07/26 03:31:42;;;;;;;4.55;3.42;;;;;;;14.39;100.00;93599.91;5055829;28;20053;-58
2021/07/26 03:34:16;;;;;;;6.95;3.80;;;;;;;14.37;100.00;93602.16;5055793;28;20025;-58
2021/07/26 03:36:50;;;;;;;7.57;3.40;;;;;;;14.38;100.00;93605.63;5055582;28;20029;-58
2021/07/26 03:39:19;;;;;;;4.78;3.53;;;;;;;14.39;100.00;93594.53;5055616;28;20063;-58
2021/07/26 03:41:44;;;;;;;5.30;3.92;;;;;;;14.36;100.00;93597.88;5055428;28;20021;-59
2021/07/26 03:44:10;;;;;;;4.45;3.53;;;;;;;14.37;100.00;93610.25;5055466;28;20025;-57
2021/07/26 03:46:45;;;;;;;5.05;4.28;;;;;;;14.33;100.00;93612.00;5055529;28;20021;-56
2021/07/26 03:49:11;;;;;;;6.07;3.67;;;;;;;14.29;100.00;93610.28;5037569;28;20032;-58
2021/07/26 03:51:36;;;;;;;7.53;4.13;;;;;;;14.27;100.00;93607.91;5055559;28;20021;-56
2021/07/26 03:54:01;;;;;;;9.57;3.72;;;;;;;14.25;100.00;93606.66;5037691;28;20460;-58
2021/07/26 03:56:27;;;;;;;4.88;3.22;;;;;;;14.19;100.00;93612.19;5054918;28;20075;-54
2021/07/26 03:59:02;;;;;;;3.72;3.17;;;;;;;14.18;100.00;93605.25;5087962;22;20045;-63
2021/07/26 04:01:31;;;;;;;7.45;3.55;;;;;;;14.20;100.00;93591.44;5078040;28;20020;-63
2021/07/26 04:04:11;;;;;;;4.20;3.80;;;;;;;14.22;100.00;93589.25;5095683;28;20024;-62
2021/07/26 04:06:49;;;;;;;6.28;3.38;;;;;;;14.23;100.00;93600.81;5082731;28;20024;-62
2021/07/26 04:09:15;;;;;;;6.10;4.47;;;;;;;14.25;100.00;93595.88;5063011;28;20021;-62
2021/07/26 04:12:00;;;;;;;6.00;3.35;;;;;;;14.25;100.00;93599.38;5057305;28;20032;-62
2021/07/26 04:14:41;;;;;;;5.78;3.53;;;;;;;14.25;100.00;93603.97;5057344;28;20111;-62
2021/07/26 04:17:09;;;;;;;5.05;3.80;;;;;;;14.24;100.00;93599.69;5074909;28;20035;-61
2021/07/26 04:19:41;;;;;;;8.70;4.03;;;;;;;14.26;100.00;93600.16;5057222;28;20024;-62
2021/07/26 04:22:06;;;;;;;5.43;3.97;;;;;;;14.24;100.00;93591.59;5057153;28;20127;-60
2021/07/26 04:24:31;;;;;;;9.95;4.40;;;;;;;14.23;100.00;93596.22;5057049;28;20530;-62
2021/07/26 04:26:59;;;;;;;8.93;4.70;;;;;;;14.24;100.00;93600.47;5074900;28;20036;-63
2021/07/26 04:29:31;;;;;;;8.50;3.97;;;;;;;14.26;100.00;93592.06;5074051;28;20505;-61
2021/07/26 04:32:03;;;;;;;7.60;4.60;;;;;;;14.25;100.00;93604.75;5056935;28;20028;-60
2021/07/26 04:34:28;;;;;;;7.57;4.18;;;;;;;14.24;100.00;93597.78;5074721;28;20024;-63
2021/07/26 04:37:08;;;;;;;9.40;5.75;;;;;;;14.21;100.00;93598.41;5074760;28;20028;-63
2021/07/26 04:39:45;;;;;;;9.20;5.05;;;;;;;14.18;100.00;93607.94;5074726;28;20111;-63
2021/07/26 04:42:10;;;;;;;10.23;4.55;;;;;;;14.16;100.00;93620.16;5056626;28;20021;-62
2021/07/26 04:44:36;;;;;;;6.50;4.30;;;;;;;14.14;100.00;93625.06;5056641;28;20050;-63
2021/07/26 04:47:03;;;;;;;7.15;4.28;;;;;;;14.18;100.00;93631.38;5056590;28;20093;-63
2021/07/26 04:49:29;;;;;;;11.65;4.25;;;;;;;14.23;100.00;93611.56;5074521;28;20134;-60
2021/07/26 04:51:54;;;;;;;8.32;4.53;;;;;;;14.28;100.00;93606.00;5074488;28;20116;-63
2021/07/26 04:54:22;;;;;;;8.60;4.10;;;;;;;14.36;100.00;93619.44;5074448;28;20017;-63
2021/07/26 04:56:50;;;;;;;6.13;3.67;;;;;;;14.50;100.00;93603.84;5056457;28;20032;-63
2021/07/26 04:59:16;;;;;;;7.82;4.90;;;;;;;14.71;100.00;93593.13;5074301;28;20130;-63
2021/07/26 05:01:41;;;;;;;8.15;4.60;;;;;;;14.86;100.00;93586.34;5074302;28;20028;-63
2021/07/26 05:04:06;;;;;;;8.15;4.82;;;;;;;14.96;100.00;93572.50;5056158;28;20024;-63
2021/07/26 05:06:35;;;;;;;8.00;5.18;;;;;;;15.03;100.00;93578.16;5044622;28;20106;-64
2021/07/26 05:09:00;;;;;;;8.75;5.70;;;;;;;15.06;100.00;93569.41;5054022;28;20021;-63
2021/07/26 05:11:26;;;;;;;9.65;5.40;;;;;;;15.08;100.00;93569.84;5036029;28;20076;-64
2021/07/26 05:13:53;;;;;;;10.70;5.78;;;;;;;15.08;100.00;93574.47;5054006;28;20029;-63
2021/07/26 05:16:22;;;;;;;9.57;5.60;;;;;;;15.10;100.00;93566.84;5054039;28;20055;-64
2021/07/26 05:18:54;;;;;;;11.25;5.63;;;;;;;15.18;100.00;93560.56;5053941;28;20024;-63
2021/07/26 05:21:19;;;;;;;11.57;5.10;;;;;;;15.30;100.00;93563.34;5053963;28;20029;-63
2021/07/26 05:23:47;;;;;;;7.75;5.38;;;;;;;15.49;100.00;93552.03;5035759;28;20032;-63
2021/07/26 05:26:18;;;;;;;8.07;6.25;;;;;;;15.68;100.00;93534.59;5035900;28;20036;-64
2021/07/26 05:28:44;;;;;;;10.50;5.50;;;;;;;15.77;100.00;93541.47;5055781;28;20122;-64
2021/07/26 05:31:09;;;;;;;8.57;6.03;;;;;;;15.77;100.00;93544.19;5073644;28;20035;-64
2021/07/26 05:33:45;;;;;;;6.38;5.15;;;;;;;15.74;100.00;93541.34;5073719;28;20023;-63
2021/07/26 05:36:10;;;;;;;8.18;5.25;;;;;;;15.71;100.00;93540.09;5073449;28;20016;-64
2021/07/26 05:38:36;;;;;;;7.47;5.30;;;;;;;15.68;100.00;93535.38;5073388;28;20020;-64
2021/07/26 05:41:08;;;;;;;8.02;5.80;;;;;;;15.65;100.00;93539.53;5073372;28;20020;-64
2021/07/26 05:43:36;;;;;;;10.20;5.55;;;;;;;15.64;100.00;93537.97;5055661;28;20028;-64
2021/07/26 05:46:04;;;;;;;12.35;5.80;;;;;;;15.64;100.00;93546.06;5055827;28;20033;-63
2021/07/26 05:48:30;;;;;;;11.15;5.85;;;;;;;15.64;100.00;93551.47;5055283;28;20032;-64
2021/07/26 05:50:57;;;;;;;10.68;5.90;;;;;;;15.70;100.00;93549.31;5073050;28;20020;-64
2021/07/26 05:53:25;;;;;;;10.93;6.13;;;;;;;15.79;100.00;93541.13;5073306;28;20403;-64
2021/07/26 05:55:51;;;;;;;10.60;6.07;;;;;;;15.87;100.00;93534.88;5055232;28;20025;-63
2021/07/26 05:58:19;;;;;;;9.07;6.18;;;;;;;16.07;100.00;93522.41;5072903;28;20110;-64
2021/07/26 06:01:09;;;;;;;6.10;4.95;;;;;;;16.19;100.00;93511.59;5068975;28;20108;-64
2021/07/26 06:03:34;;;;;;;9.13;5.70;;;;;;;16.31;100.00;93514.28;5052290;28;20036;-64
2021/07/26 06:06:03;;;;;;;7.10;5.22;;;;;;;16.41;100.00;93513.03;5035145;28;20043;-64
2021/07/26 06:08:31;;;;;;;8.32;5.80;;;;;;;16.35;100.00;93517.88;5057525;28;20020;-64
2021/07/26 06:11:03;;;;;;;7.40;5.03;;;;;;;16.46;100.00;93513.59;5043057;28;20031;-64
2021/07/26 06:13:32;;;;;;;9.38;5.15;;;;;;;16.44;100.00;93518.56;5061895;28;20108;-64
2021/07/26 06:16:00;;;;;;;8.00;4.90;;;;;;;16.54;100.00;93511.91;5065414;28;20044;-65
2021/07/26 06:18:26;;;;;;;6.78;5.25;;;;;;;16.66;100.00;93508.38;5063680;28;20024;-62
2021/07/26 06:20:52;;;;;;;5.63;5.00;;;;;;;16.80;100.00;93496.09;5064734;28;20059;-64
2021/07/26 06:23:20;;;;;;;8.48;5.55;;;;;;;16.92;100.00;93486.38;5061567;28;20032;-65
2021/07/26 06:25:45;;;;;;;6.97;5.30;;;;;;;17.08;100.00;93474.50;5059203;28;20033;-65
2021/07/26 06:28:13;;;;;;;9.43;5.15;;;;;;;17.14;100.00;93461.47;5054214;28;20109;-64
2021/07/26 06:30:39;;;;;;;7.88;5.40;;;;;;;17.20;100.00;93451.22;5059189;28;20025;-64
2021/07/26 06:33:10;;;;;;;7.45;4.88;;;;;;;17.26;100.00;93444.44;5059249;28;20036;-64
2021/07/26 06:35:35;;;;;;;5.00;4.35;;;;;;;17.27;100.00;93454.91;5047446;28;20059;-63
2021/07/26 06:38:01;;;;;;;6.28;4.30;;;;;;;17.33;100.00;93450.00;5072172;28;20089;-64
2021/07/26 06:40:30;;;;;;;5.43;4.63;;;;;;;17.39;100.00;93448.66;5072568;28;20475;-65
2021/07/26 06:42:59;;;;;;;6.10;4.78;;;;;;;17.38;100.00;93442.44;5072387;28;20055;-65
2021/07/26 06:45:26;;;;;;;6.43;4.88;;;;;;;17.52;100.00;93433.09;5072429;28;20028;-64
2021/07/26 06:47:51;;;;;;;5.70;4.53;;;;;;;17.56;100.00;93434.75;5072280;28;20016;-64
2021/07/26 06:50:16;;;;;;;5.45;4.38;;;;;;;17.61;100.00;93425.59;5054703;28;20110;-65
2021/07/26 06:52:44;;;;;;;7.10;4.25;;;;;;;17.60;100.00;93424.03;5072372;28;20103;-64
2021/07/26 06:55:13;;;;;;;6.38;4.47;;;;;;;17.86;100.00;93399.94;5054667;28;20024;-64
2021/07/26 06:57:41;;;;;;;5.40;4.47;;;;;;;18.05;100.00;93420.13;5050695;28;20141;-64
2021/07/26 07:00:10;;;;;;;7.65;4.53;;;;;;;18.23;100.00;93402.31;5051186;28;20055;-63
2021/07/26 07:02:38;;;;;;;6.68;4.68;;;;;;;18.51;100.00;93381.25;5051047;28;20388;-64
2021/07/26 07:05:07;;;;;;;5.65;4.88;;;;;;;18.83;100.00;93351.31;5052160;28;20021;-63
2021/07/26 07:07:38;;;;;;;7.30;4.80;;;;;;;19.06;100.00;93313.34;5038896;28;20021;-63
2021/07/26 07:10:06;;;;;;;6.47;4.85;;;;;;;19.38;100.00;93297.59;5051266;28;20025;-64
2021/07/26 07:12:44;;;;;;;6.07;5.00;;;;;;;19.68;100.00;93267.84;5051966;28;20040;-64
2021/07/26 07:15:18;;;;;;;8.35;5.18;;;;;;;20.01;100.00;93241.91;5052076;28;20104;-65
2021/07/26 07:17:47;;;;;;;7.80;4.80;;;;;;;20.44;100.00;93213.31;5052060;28;20074;-64
2021/07/26 07:20:13;;;;;;;7.03;5.10;;;;;;;20.63;100.00;93204.97;5051987;28;20514;-65
2021/07/26 07:22:39;;;;;;;8.68;4.90;;;;;;;20.79;100.00;93234.66;5052260;28;20028;-65
2021/07/26 07:25:08;;;;;;;6.82;5.07;;;;;;;20.98;100.00;93280.72;5051863;28;20039;-65
2021/07/26 07:27:33;;;;;;;6.25;4.63;;;;;;;21.18;100.00;93296.88;5050577;28;20098;-64
2021/07/26 07:29:59;;;;;;;6.88;5.20;;;;;;;21.28;100.00;93403.19;5051901;28;20021;-65
2021/07/26 07:32:25;;;;;;;5.03;4.10;;;;;;;21.52;100.00;93505.41;5034188;28;20053;-63
2021/07/26 07:34:53;;;;;;;7.03;4.15;;;;;;;21.67;100.00;93661.66;5052260;28;20063;-62
2021/07/26 07:37:18;;;;;;;6.00;3.97;;;;;;;21.83;100.00;93771.28;5050449;28;20028;-64
2021/07/26 07:39:44;;;;;;;4.95;3.70;;;;;;;21.76;100.00;93885.66;5051795;28;20025;-64
2021/07/26 07:42:09;;;;;;;5.68;3.55;;;;;;;21.68;100.00;93889.41;5051847;28;20025;-63
2021/07/26 07:44:41;;;;;;;5.13;3.92;;;;;;;21.85;100.00;93953.56;5051733;28;20029;-64
2021/07/26 07:47:11;;;;;;;4.07;3.67;;;;;;;21.91;100.00;93913.91;5051695;28;20029;-64
2021/07/26 07:49:36;;;;;;;4.55;3.58;;;;;;;21.86;100.00;93963.31;5050298;28;20110;-63
2021/07/26 07:52:02;;;;;;;4.07;3.55;;;;;;;21.88;100.00;93971.91;5051013;28;20112;-64
2021/07/26 07:54:27;;;;;;;5.20;3.35;;;;;;;21.95;100.00;93967.38;5050290;28;20029;-62
2021/07/26 07:56:53;;;;;;;5.55;4.15;;;;;;;22.03;100.00;93968.25;5052094;28;20063;-65
2021/07/26 07:59:21;;;;;;;6.60;4.07;;;;;;;22.04;100.00;93982.72;5053675;28;20111;-64
2021/07/26 08:01:49;;;;;;;6.53;5.25;;;;;;;21.80;100.00;93992.78;5071544;28;20073;-64
2021/07/26 08:04:15;;;;;;;4.88;4.45;;;;;;;21.52;100.00;93948.69;5055414;28;20082;-64
2021/07/26 08:06:50;;;;;;;5.88;4.32;;;;;;;21.47;100.00;93873.47;5062694;28;20445;-63
2021/07/26 08:09:17;;;;;;;5.82;4.10;;;;;;;21.30;100.00;93898.47;5057105;28;20020;-64
2021/07/26 08:11:45;;;;;;;6.38;5.00;;;;;;;21.21;100.00;93852.38;5057162;28;20051;-64
2021/07/26 08:14:30;;;;;;;5.97;4.68;;;;;;;20.81;100.00;93855.50;5075023;28;20020;-63
2021/07/26 08:17:01;;;;;;;6.15;4.90;;;;;;;20.75;100.00;93807.97;5074871;28;20028;-64
2021/07/26 08:19:31;;;;;;;6.05;4.72;;;;;;;20.53;100.00;93844.84;5074973;28;20020;-63
2021/07/26 08:21:56;;;;;;;7.05;5.32;;;;;;;20.41;100.00;93837.59;5074880;28;20058;-63
2021/07/26 08:24:32;;;;;;;9.57;5.53;;;;;;;20.28;100.00;93830.69;5074872;28;20050;-64
2021/07/26 08:27:00;;;;;;;6.53;5.30;;;;;;;20.14;100.00;93842.03;5074711;28;20376;-63
2021/07/26 08:29:30;;;;;;;7.43;5.90;;;;;;;20.07;100.00;93832.94;5074728;28;20446;-64
2021/07/26 08:31:55;;;;;;;8.00;5.93;;;;;;;19.90;100.00;93837.63;5056749;28;20490;-64
2021/07/26 08:34:27;;;;;;;7.55;5.55;;;;;;;19.53;100.00;93858.03;5074676;28;20055;-63
2021/07/26 08:36:55;;;;;;;6.72;5.97;;;;;;;19.36;100.00;93870.84;5074601;28;20425;-64
2021/07/26 08:39:20;;;;;;;7.25;5.97;;;;;;;19.20;100.00;93867.31;5074591;28;20021;-64
2021/07/26 08:41:45;;;;;;;7.30;5.50;;;;;;;19.15;100.00;93872.22;5074499;28;20031;-64
2021/07/26 08:44:14;;;;;;;8.30;5.60;;;;;;;19.34;100.00;93877.78;5074360;28;20020;-64
2021/07/26 08:46:45;;;;;;;7.78;5.60;;;;;;;19.37;100.00;93869.69;5074383;28;20404;-63
2021/07/26 08:49:14;;;;;;;10.50;6.43;;;;;;;19.40;100.00;93874.44;5074470;28;20025;-63
2021/07/26 08:51:44;;;;;;;9.52;6.03;;;;;;;19.46;100.00;93872.25;5056458;28;20021;-63
2021/07/26 08:54:12;;;;;;;7.70;6.00;;;;;;;19.56;100.00;93873.69;5039921;28;20115;-63
2021/07/26 08:56:51;;;;;;;6.38;5.32;;;;;;;19.86;100.00;93882.97;5074239;28;20054;-63
2021/07/26 08:59:16;;;;;;;5.82;5.10;;;;;;;19.75;100.00;93908.28;5056329;28;20095;-63
2021/07/26 09:01:43;;;;;;;5.80;4.93;;;;;;;20.04;100.00;93907.84;5074216;28;20391;-63
2021/07/26 09:04:11;;;;;;;7.13;4.50;;;;;;;20.17;100.00;93919.38;5056053;28;20094;-63
2021/07/26 09:06:42;;;;;;;5.63;4.20;;;;;;;20.36;100.00;93934.97;5074203;28;20028;-63
2021/07/26 09:09:46;;;;;;;5.95;4.57;;;;;;;20.43;100.00;93960.44;5074074;28;20032;-63
2021/07/26 09:12:36;;;;;;;5.07;4.00;;;;;;;20.43;100.00;93974.03;5073974;28;20026;-63
2021/07/26 09:15:04;;;;;;;4.32;3.80;;;;;;;20.64;100.00;93994.72;5073465;28;20427;-63
2021/07/26 09:17:42;;;;;;;5.25;3.78;;;;;;;21.10;100.00;94001.94;5073801;28;20450;-63
2021/07/26 09:20:08;;;;;;;4.78;4.10;;;;;;;21.29;100.00;94041.25;5055848;28;20035;-63
2021/07/26 09:22:42;;;;;;;5.85;3.78;;;;;;;21.67;100.00;94065.75;5055888;28;20051;-63
2021/07/26 09:25:10;;;;;;;5.40;3.90;;;;;;;21.94;100.00;94114.97;5073587;28;20028;-63
2021/07/26 09:28:07;;;;;;;5.90;4.28;;;;;;;22.33;100.00;94106.72;5073416;28;20024;-63
2021/07/26 09:30:53;;;;;;;6.57;4.20;;;;;;;22.75;100.00;94125.78;5073644;28;20021;-62
2021/07/26 09:33:37;;;;;;;5.40;4.00;;;;;;;23.09;100.00;94143.13;5055800;28;20025;-63
2021/07/26 09:36:17;;;;;;;5.57;3.80;;;;;;;23.36;100.00;94174.78;5073462;28;20036;-63
2021/07/26 09:38:53;;;;;;;6.32;3.83;;;;;;;23.85;100.00;94258.69;5073324;28;20016;-63
2021/07/26 09:41:45;;;;;;;5.10;3.65;;;;;;;23.66;100.00;94359.94;5073468;28;20023;-63
2021/07/26 09:44:13;;;;;;;3.95;3.55;;;;;;;23.56;100.00;94240.28;5073241;28;20026;-63
2021/07/26 09:46:39;;;;;;;6.07;3.75;;;;;;;23.80;100.00;94312.94;5073333;28;20479;-63
2021/07/26 09:49:15;;;;;;;5.10;3.50;;;;;;;24.05;100.00;94283.97;5055051;28;20063;-63
2021/07/26 09:51:42;;;;;;;5.47;3.70;;;;;;;24.26;100.00;94388.25;5070439;28;20024;-63
2021/07/26 09:54:08;;;;;;;4.20;3.50;;;;;;;24.33;100.00;94474.41;5071837;28;20391;-59
2021/07/26 09:56:34;;;;;;;5.63;3.78;;;;;;;24.27;100.00;94395.31;5038149;28;20020;-63
2021/07/26 09:59:06;;;;;;;6.28;3.60;;;;;;;24.09;100.00;94429.03;5058552;28;20059;-59
2021/07/26 10:01:32;;;;;;;7.13;3.88;;;;;;;24.32;100.00;94383.31;5072330;28;20086;-54
2021/07/26 10:03:58;;;;;;;4.32;3.72;;;;;;;24.17;100.00;94398.69;5051195;28;20044;-57
2021/07/26 10:06:28;;;;;;;4.95;3.50;;;;;;;24.49;100.00;94340.91;5053995;28;20119;-57
2021/07/26 10:08:57;;;;;;;5.97;3.42;;;;;;;24.32;100.00;94448.22;5053173;28;20025;-59
2021/07/26 10:11:27;;;;;;;4.53;3.33;;;;;;;24.43;100.00;94482.78;5035433;28;20476;-57
2021/07/26 10:13:53;;;;;;;4.93;4.35;;;;;;;24.63;100.00;94463.50;5053136;28;20021;-57
2021/07/26 10:16:19;;;;;;;4.20;3.50;;;;;;;24.77;100.00;94461.78;5045860;28;20029;-55
2021/07/26 10:18:49;;;;;;;3.63;2.95;;;;;;;25.08;100.00;94588.66;5035052;28;20033;-59
2021/07/26 10:21:26;;;;;;;2.92;2.63;;;;;;;25.39;100.00;94725.38;5052866;28;20430;-57
2021/07/26 10:24:09;;;;;;;5.50;3.38;;;;;;;25.49;100.00;94714.97;5034897;28;20480;-55
2021/07/26 10:26:44;;;;;;;3.60;3.13;;;;;;;25.55;100.00;94812.22;5054314;28;20032;-55
2021/07/26 10:29:15;;;;;;;4.75;2.85;;;;;;;25.75;100.00;94997.56;5055004;28;20078;-55
2021/07/26 10:31:41;;;;;;;2.70;2.50;;;;;;;26.15;100.00;94971.59;5072497;28;20029;-58
2021/07/26 10:34:13;;;;;;;6.40;3.10;;;;;;;26.52;100.00;95071.50;5036895;28;20032;-57
2021/07/26 10:36:42;;;;;;;5.75;3.35;;;;;;;26.53;100.00;95110.75;5052151;28;20021;-57
2021/07/26 10:39:13;;;;;;;5.00;2.70;;;;;;;26.63;100.00;95068.94;5053854;28;20036;-56
2021/07/26 10:41:48;;;;;;;3.83;3.10;;;;;;;26.65;100.00;95063.06;5034549;28;20095;-57
2021/07/26 10:44:17;;;;;;;5.88;3.30;;;;;;;26.23;100.00;95075.69;5054226;28;20870;-58
2021/07/26 10:47:11;;;;;;;5.10;3.45;;;;;;;26.06;100.00;95007.53;5054197;28;20048;-61
2021/07/26 10:49:51;;;;;;;3.72;3.10;;;;;;;26.25;100.00;95004.72;5072324;28;20111;-60
2021/07/26 10:52:22;;;;;;;4.30;3.35;;;;;;;26.30;100.00;95020.91;5054325;28;20035;-58
2021/07/26 10:54:51;;;;;;;5.20;3.55;;;;;;;26.59;100.00;95043.34;5072288;28;20027;-57
2021/07/26 10:57:43;;;;;;;5.40;3.25;;;;;;;26.72;100.00;95033.75;5054036;28;20128;-60
2021/07/26 11:02:49;;;;;;;3.58;3.28;;;;;;;26.82;100.00;95079.06;5072244;28;20040;-58
2021/07/26 11:05:23;;;;;;;3.93;3.50;;;;;;;26.46;100.00;95094.94;5055030;28;20112;-58
2021/07/26 11:08:23;;;;;;;3.88;3.30;;;;;;;26.26;100.00;95069.44;5055106;28;20117;-60
2021/07/26 11:10:54;;;;;;;3.83;3.42;;;;;;;26.57;100.00;95103.38;5051985;28;20124;-60
2021/07/26 11:13:20;;;;;;;4.05;3.65;;;;;;;26.72;100.00;95090.69;5052146;28;20025;-58
2021/07/26 11:15:53;;;;;;;4.60;3.90;;;;;;;27.04;100.00;95116.75;5051899;28;20021;-60
2021/07/26 11:18:32;;;;;;;4.20;3.45;;;;;;;27.08;100.00;95138.78;5051916;28;20025;-60
2021/07/26 11:21:03;;;;;;;9.23;3.95;;;;;;;27.26;100.00;95147.31;5051998;28;20029;-60
2021/07/26 11:23:56;;;;;;;6.15;4.15;;;;;;;27.51;100.00;95180.69;5034539;28;20101;-58
2021/07/26 11:26:48;;;;;;;4.07;3.47;;;;;;;27.61;100.00;95139.56;5060522;28;20442;-59
2021/07/26 11:29:20;;;;;;;3.92;3.50;;;;;;;28.00;100.00;95137.34;5053901;28;20020;-63
2021/07/26 11:31:51;;;;;;;4.40;3.85;;;;;;;28.49;100.00;95114.28;5071984;28;20021;-58
2021/07/26 11:34:31;;;;;;;4.78;3.72;;;;;;;28.18;100.00;95164.28;5051953;28;20025;-58
2021/07/26 11:37:09;;;;;;;4.53;3.60;;;;;;;28.06;100.00;95140.56;5052003;28;20033;-55
2021/07/26 11:39:48;;;;;;;4.10;3.70;;;;;;;27.62;100.00;95156.88;5021655;28;20035;-58
2021/07/26 11:42:19;;;;;;;5.25;3.90;;;;;;;27.72;100.00;95115.75;5055994;28;20516;-58